Duck Lake, Canada
Current Conditions -  °F | °C
As of 5:00 AM on Saturday 25 Oct 2014 (Local Time) from CYPA Reporting Station
Few Clouds Few Clouds  
Wind Chill: 26°   Ceiling: Unl
Heat Index: 34°   Visibility: 15mi
Dew Point: 27°   Wind: 9mph
Humidity: 75%   Direction: 260°W
Pressure: 29.93"   Gusts: NA
Location:  52.8°N, 106.22°W
Report Text: CYPA 251100Z 26008KT 15SM FEW250 01/M03 A2993 RMK CI2 SLP155
Loading
Personal Weather Stations






























Interactive Weather Map
Tropical Storm Tracking
New forecast layout! Learn more

10-Day Weather Forecast

Advertisements
Track Severe Weather on mobile